Time;durP1;ratioP1;P1;durP2;ratioP2;P2;SDS_P1;SDS_P2;PMS_P1;PMS_P2;Temp;Humidity;BMP_temperature;BMP_pressure;BME280_temperature;BME280_humidity;BME280_pressure;Samples;Min_cycle;Max_cycle;Signal;HPM_P1;HPM_P2
2022/03/29 00:01:40;;;;;;;;;;;17.40;88.50;;;;;;5067890;29;19981;-29
2022/03/29 00:04:11;;;;;;;;;;;17.40;88.30;;;;;;5067923;29;20400;-28
2022/03/29 00:06:43;;;;;;;;;;;17.40;88.10;;;;;;5066424;29;20022;-28
2022/03/29 00:09:14;;;;;;;;;;;17.40;87.00;;;;;;5067875;29;19923;-29
2022/03/29 00:11:45;;;;;;;;;;;17.40;78.70;;;;;;5068365;29;20453;-28
2022/03/29 00:14:15;;;;;;;;;;;17.40;77.70;;;;;;5072032;29;20009;-30
2022/03/29 00:16:49;;;;;;;;;;;17.30;77.90;;;;;;5070599;29;19924;-29
2022/03/29 00:19:38;;;;;;;;;;;17.30;77.30;;;;;;5071888;29;19912;-29
2022/03/29 00:22:09;;;;;;;;;;;17.30;77.20;;;;;;5071561;29;19927;-29
2022/03/29 00:24:40;;;;;;;;;;;17.20;77.20;;;;;;5071752;29;19923;-29
2022/03/29 00:27:11;;;;;;;;;;;17.20;77.30;;;;;;5070773;29;19923;-28
2022/03/29 00:29:42;;;;;;;;;;;17.20;77.30;;;;;;5071731;29;19930;-30
2022/03/29 00:32:13;;;;;;;;;;;17.20;77.40;;;;;;5069777;29;19923;-30
2022/03/29 00:34:44;;;;;;;;;;;17.20;77.70;;;;;;5071651;29;19923;-28
2022/03/29 00:37:15;;;;;;;;;;;17.20;78.60;;;;;;5071624;29;19923;-29
2022/03/29 00:39:46;;;;;;;;;;;17.20;79.70;;;;;;5071814;29;20358;-28
2022/03/29 00:42:17;;;;;;;;;;;17.30;81.90;;;;;;5055228;29;19923;-28
2022/03/29 00:44:48;;;;;;;;;;;17.30;81.40;;;;;;5071686;29;19935;-28
2022/03/29 00:47:19;;;;;;;;;;;17.30;81.60;;;;;;5070290;29;20365;-29
2022/03/29 00:49:50;;;;;;;;;;;17.30;82.60;;;;;;5071240;29;19923;-28
2022/03/29 00:52:21;;;;;;;;;;;17.30;82.10;;;;;;5071121;29;19959;-29
2022/03/29 00:54:52;;;;;;;;;;;17.30;83.00;;;;;;5070231;29;19927;-29
2022/03/29 00:57:25;;;;;;;;;;;17.30;82.70;;;;;;5071203;29;19924;-27
2022/03/29 00:59:56;;;;;;;;;;;17.30;83.40;;;;;;5070097;29;20014;-30
2022/03/29 01:02:27;;;;;;;;;;;17.30;83.60;;;;;;5071077;29;19986;-29
2022/03/29 01:04:58;;;;;;;;;;;17.30;83.50;;;;;;5071153;29;20352;-29
2022/03/29 01:07:29;;;;;;;;;;;17.30;83.50;;;;;;5071290;29;20373;-29
2022/03/29 01:10:01;;;;;;;;;;;17.30;83.50;;;;;;5070842;29;19952;-28
2022/03/29 01:12:32;;;;;;;;;;;17.30;84.50;;;;;;5070924;29;19927;-29
2022/03/29 01:15:07;;;;;;;;;;;17.30;84.60;;;;;;5070865;29;19923;-29
2022/03/29 01:17:41;;;;;;;;;;;17.30;85.10;;;;;;5069672;29;19989;-28
2022/03/29 01:20:19;;;;;;;;;;;17.30;84.80;;;;;;5070791;29;19930;-29
2022/03/29 01:22:50;;;;;;;;;;;17.30;86.50;;;;;;5053425;29;19924;-30
2022/03/29 01:25:25;;;;;;;;;;;17.30;87.00;;;;;;5070584;29;19927;-29
2022/03/29 01:27:57;;;;;;;;;;;17.20;86.00;;;;;;5069533;29;19924;-30
2022/03/29 01:30:28;;;;;;;;;;;17.20;86.30;;;;;;5069821;29;20269;-29
2022/03/29 01:32:59;;;;;;;;;;;17.30;88.00;;;;;;5070937;29;19923;-28
2022/03/29 01:35:30;;;;;;;;;;;17.20;87.30;;;;;;5070547;29;19931;-29
2022/03/29 01:38:01;;;;;;;;;;;17.20;89.10;;;;;;5069283;29;19924;-29
2022/03/29 01:40:32;;;;;;;;;;;17.20;88.00;;;;;;5053616;29;19947;-29
2022/03/29 01:43:03;;;;;;;;;;;17.20;87.90;;;;;;5070201;29;19931;-28
2022/03/29 01:45:34;;;;;;;;;;;17.20;88.20;;;;;;5070292;29;20286;-29
2022/03/29 01:48:05;;;;;;;;;;;17.20;89.40;;;;;;5070392;29;19924;-29
2022/03/29 01:50:36;;;;;;;;;;;17.20;88.90;;;;;;5070195;29;19971;-28
2022/03/29 01:53:07;;;;;;;;;;;17.20;87.80;;;;;;5070239;29;19927;-28
2022/03/29 01:55:39;;;;;;;;;;;17.20;88.10;;;;;;5070337;29;19960;-29
2022/03/29 01:58:09;;;;;;;;;;;17.20;89.10;;;;;;5070250;29;19931;-29
2022/03/29 02:00:41;;;;;;;;;;;17.20;89.70;;;;;;5070104;29;20259;-29
2022/03/29 02:03:12;;;;;;;;;;;17.20;91.70;;;;;;5069780;29;19995;-28
2022/03/29 02:05:43;;;;;;;;;;;17.20;90.60;;;;;;5068840;29;19923;-29
2022/03/29 02:08:14;;;;;;;;;;;17.10;91.10;;;;;;5069792;29;19923;-28
2022/03/29 02:10:45;;;;;;;;;;;17.20;90.70;;;;;;5069901;29;19946;-28
2022/03/29 02:13:17;;;;;;;;;;;17.10;92.70;;;;;;5068589;29;19971;-30
2022/03/29 02:15:48;;;;;;;;;;;17.10;93.70;;;;;;5069865;29;20429;-28
2022/03/29 02:18:19;;;;;;;;;;;17.10;92.70;;;;;;5068842;29;19946;-29
2022/03/29 02:20:50;;;;;;;;;;;17.10;90.90;;;;;;5069569;29;19923;-29
2022/03/29 02:23:21;;;;;;;;;;;17.10;89.80;;;;;;5069564;29;20117;-30
2022/03/29 02:25:52;;;;;;;;;;;17.10;89.50;;;;;;5069518;29;19983;-29
2022/03/29 02:28:23;;;;;;;;;;;17.00;89.60;;;;;;5069670;29;19924;-28
2022/03/29 02:30:54;;;;;;;;;;;17.10;91.20;;;;;;5069653;29;19923;-28
2022/03/29 02:33:25;;;;;;;;;;;17.10;89.40;;;;;;5069587;29;20396;-29
2022/03/29 02:35:55;;;;;;;;;;;17.00;90.40;;;;;;5067468;29;19923;-29
2022/03/29 02:38:26;;;;;;;;;;;17.10;90.00;;;;;;5052650;29;19931;-29
2022/03/29 02:40:58;;;;;;;;;;;17.00;89.70;;;;;;5069661;29;19927;-29
2022/03/29 02:43:29;;;;;;;;;;;17.10;89.30;;;;;;5052636;29;20075;-29
2022/03/29 02:46:00;;;;;;;;;;;17.10;89.10;;;;;;5069234;29;20018;-29
2022/03/29 02:48:31;;;;;;;;;;;17.00;89.50;;;;;;5069222;29;20277;-29
2022/03/29 02:51:02;;;;;;;;;;;17.00;89.40;;;;;;5069101;29;19930;-28
2022/03/29 02:53:33;;;;;;;;;;;17.10;89.50;;;;;;5069191;29;19930;-28
2022/03/29 02:56:03;;;;;;;;;;;17.00;89.80;;;;;;5068831;29;19927;-29
2022/03/29 02:58:34;;;;;;;;;;;17.00;89.50;;;;;;5068352;29;19923;-29
2022/03/29 03:01:05;;;;;;;;;;;17.00;89.10;;;;;;5068883;29;19923;-28
2022/03/29 03:03:36;;;;;;;;;;;17.00;89.30;;;;;;5068662;29;20362;-29
2022/03/29 03:06:07;;;;;;;;;;;17.00;89.40;;;;;;5069125;29;19928;-29
2022/03/29 03:08:38;;;;;;;;;;;17.00;89.00;;;;;;5069248;29;20377;-28
2022/03/29 03:11:09;;;;;;;;;;;17.00;89.90;;;;;;5069065;29;19930;-29
2022/03/29 03:13:40;;;;;;;;;;;17.00;88.80;;;;;;5069233;29;20247;-29
2022/03/29 03:16:11;;;;;;;;;;;17.00;89.40;;;;;;5068863;29;19930;-28
2022/03/29 03:18:42;;;;;;;;;;;17.00;89.50;;;;;;5068646;29;19924;-28
2022/03/29 03:21:13;;;;;;;;;;;17.00;90.00;;;;;;5068737;29;19923;-28
2022/03/29 03:23:44;;;;;;;;;;;17.00;89.30;;;;;;5066581;29;19923;-29
2022/03/29 03:26:15;;;;;;;;;;;17.00;89.60;;;;;;5068339;29;20306;-28
2022/03/29 03:28:46;;;;;;;;;;;17.00;89.10;;;;;;5068704;29;19930;-29
2022/03/29 03:31:17;;;;;;;;;;;16.90;90.30;;;;;;5068498;29;19943;-30
2022/03/29 03:33:48;;;;;;;;;;;16.90;90.70;;;;;;5068644;29;19923;-29
2022/03/29 03:36:19;;;;;;;;;;;16.90;89.70;;;;;;5051565;29;19975;-29
2022/03/29 03:38:50;;;;;;;;;;;16.90;89.40;;;;;;5067188;29;19930;-30
2022/03/29 03:41:20;;;;;;;;;;;16.90;89.60;;;;;;5068397;29;20266;-28
2022/03/29 03:43:51;;;;;;;;;;;16.90;90.00;;;;;;5066430;29;19942;-30
2022/03/29 03:46:22;;;;;;;;;;;16.90;89.00;;;;;;5067867;29;19923;-28
2022/03/29 03:48:53;;;;;;;;;;;16.90;89.90;;;;;;5051609;29;19931;-29
2022/03/29 03:51:24;;;;;;;;;;;16.90;90.70;;;;;;5068232;29;21243;-30
2022/03/29 03:53:55;;;;;;;;;;;16.90;89.30;;;;;;5068118;29;20338;-29
2022/03/29 03:56:26;;;;;;;;;;;16.90;92.90;;;;;;5068127;29;19957;-29
2022/03/29 03:58:57;;;;;;;;;;;17.00;92.40;;;;;;5067552;29;20305;-29
2022/03/29 04:01:28;;;;;;;;;;;17.10;91.30;;;;;;5068000;29;19924;-28
2022/03/29 04:03:59;;;;;;;;;;;16.80;81.50;;;;;;5067472;29;19924;-29
2022/03/29 04:06:30;;;;;;;;;;;16.40;81.90;;;;;;5068014;29;20373;-27
2022/03/29 04:09:01;;;;;;;;;;;16.10;82.50;;;;;;5067914;29;19924;-28
2022/03/29 04:11:32;;;;;;;;;;;15.90;82.80;;;;;;5051700;29;19924;-28
2022/03/29 04:14:03;;;;;;;;;;;15.80;83.30;;;;;;5067759;29;20384;-27
2022/03/29 04:16:34;;;;;;;;;;;15.60;83.40;;;;;;5067792;29;19924;-28
2022/03/29 04:19:05;;;;;;;;;;;15.50;83.60;;;;;;5067979;29;19927;-29
2022/03/29 04:21:35;;;;;;;;;;;15.40;83.60;;;;;;5067763;29;19953;-28
2022/03/29 04:24:07;;;;;;;;;;;15.30;83.80;;;;;;5067129;29;19924;-28
2022/03/29 04:26:37;;;;;;;;;;;15.20;84.60;;;;;;5067489;29;19991;-29
2022/03/29 04:29:08;;;;;;;;;;;15.20;84.20;;;;;;5067543;29;19923;-28
2022/03/29 04:31:39;;;;;;;;;;;15.10;84.30;;;;;;5068154;29;19930;-29
2022/03/29 04:34:10;;;;;;;;;;;15.10;84.50;;;;;;5066099;29;20097;-28
2022/03/29 04:36:41;;;;;;;;;;;15.00;84.80;;;;;;5067806;29;20002;-28
2022/03/29 04:39:12;;;;;;;;;;;14.90;84.90;;;;;;5067629;29;20385;-29
2022/03/29 04:41:43;;;;;;;;;;;14.90;85.10;;;;;;5067803;29;19923;-28
2022/03/29 04:44:14;;;;;;;;;;;14.90;85.30;;;;;;5068080;29;19979;-28
2022/03/29 04:46:45;;;;;;;;;;;14.80;85.40;;;;;;5067773;29;19923;-28
2022/03/29 04:49:16;;;;;;;;;;;14.80;85.70;;;;;;5051080;29;20281;-28
2022/03/29 04:51:47;;;;;;;;;;;14.70;85.70;;;;;;5050937;29;19928;-27
2022/03/29 04:54:18;;;;;;;;;;;14.70;85.80;;;;;;5067296;29;19928;-28
2022/03/29 04:56:49;;;;;;;;;;;14.70;86.10;;;;;;5067624;29;19931;-28
2022/03/29 04:59:20;;;;;;;;;;;14.60;86.20;;;;;;5070202;29;19931;-30
2022/03/29 05:01:50;;;;;;;;;;;14.60;86.20;;;;;;5071018;29;20377;-27
2022/03/29 05:04:21;;;;;;;;;;;14.60;86.30;;;;;;5071427;29;20286;-28
2022/03/29 05:06:52;;;;;;;;;;;14.60;86.40;;;;;;5054079;29;19930;-28
2022/03/29 05:09:23;;;;;;;;;;;14.50;86.50;;;;;;5071402;29;20277;-28
2022/03/29 05:11:57;;;;;;;;;;;14.50;86.60;;;;;;5070967;29;19923;-29
2022/03/29 05:14:28;;;;;;;;;;;14.50;86.80;;;;;;5070937;29;20018;-28
2022/03/29 05:16:59;;;;;;;;;;;14.50;87.00;;;;;;5070956;29;20338;-28
2022/03/29 05:19:30;;;;;;;;;;;14.50;87.00;;;;;;5070837;29;19971;-28
2022/03/29 05:22:01;;;;;;;;;;;14.40;87.10;;;;;;5054137;29;20366;-29
2022/03/29 05:24:32;;;;;;;;;;;14.40;87.20;;;;;;5054262;29;20258;-28
2022/03/29 05:27:03;;;;;;;;;;;14.40;87.20;;;;;;5070458;29;19930;-28
2022/03/29 05:29:34;;;;;;;;;;;14.40;87.30;;;;;;5069913;29;20410;-27
2022/03/29 05:32:08;;;;;;;;;;;14.40;87.40;;;;;;5070656;29;19949;-28
2022/03/29 05:34:39;;;;;;;;;;;14.30;87.40;;;;;;5069534;29;20026;-29
2022/03/29 05:37:09;;;;;;;;;;;14.30;87.50;;;;;;5070507;29;20010;-28
2022/03/29 05:39:43;;;;;;;;;;;14.30;87.60;;;;;;5070496;29;20417;-29
2022/03/29 05:42:14;;;;;;;;;;;14.30;87.70;;;;;;5070190;29;19928;-28
2022/03/29 05:44:45;;;;;;;;;;;14.30;87.70;;;;;;5070602;29;20278;-29
2022/03/29 05:50:06;;;;;;;;;;;14.30;87.80;;;;;;5070624;29;20390;-29
2022/03/29 05:52:37;;;;;;;;;;;14.20;87.70;;;;;;5069225;29;19979;-28
2022/03/29 05:55:08;;;;;;;;;;;14.30;87.90;;;;;;5070561;29;19927;-28
2022/03/29 05:57:39;;;;;;;;;;;14.30;88.20;;;;;;5063251;29;19928;-28
2022/03/29 06:00:11;;;;;;;;;;;14.20;88.00;;;;;;5063644;29;19987;-29
2022/03/29 06:02:44;;;;;;;;;;;14.30;88.40;;;;;;5067868;29;20412;-28
2022/03/29 06:05:16;;;;;;;;;;;14.50;87.70;;;;;;5067874;29;19931;-28
2022/03/29 06:07:47;;;;;;;;;;;14.70;87.10;;;;;;5067646;29;19923;-30
2022/03/29 06:10:18;;;;;;;;;;;14.90;87.20;;;;;;5067663;29;19927;-28
2022/03/29 06:12:49;;;;;;;;;;;15.00;87.30;;;;;;5067682;29;19931;-32
2022/03/29 06:15:20;;;;;;;;;;;15.20;87.90;;;;;;5067806;29;19948;-29
2022/03/29 06:17:52;;;;;;;;;;;15.40;91.00;;;;;;5067728;29;19927;-28
2022/03/29 06:20:23;;;;;;;;;;;15.50;90.30;;;;;;5067645;29;19958;-29
2022/03/29 06:22:54;;;;;;;;;;;15.70;90.10;;;;;;5067263;29;19923;-29
2022/03/29 06:25:25;;;;;;;;;;;15.90;90.50;;;;;;5067388;29;20322;-30
2022/03/29 06:27:56;;;;;;;;;;;16.00;90.20;;;;;;5067591;29;19931;-29
2022/03/29 06:30:27;;;;;;;;;;;16.10;91.50;;;;;;5067491;29;19934;-29
2022/03/29 06:32:58;;;;;;;;;;;16.20;90.80;;;;;;5067269;29;20687;-28
2022/03/29 06:35:31;;;;;;;;;;;16.30;90.60;;;;;;5067294;29;19928;-28
2022/03/29 06:38:02;;;;;;;;;;;16.40;91.00;;;;;;5066765;29;19924;-28
2022/03/29 06:40:36;;;;;;;;;;;16.60;90.30;;;;;;5067357;29;20369;-28
2022/03/29 06:43:06;;;;;;;;;;;16.70;90.00;;;;;;5066954;29;20384;-28
2022/03/29 06:45:37;;;;;;;;;;;16.90;89.00;;;;;;5067153;29;19928;-28
2022/03/29 06:48:08;;;;;;;;;;;17.00;89.10;;;;;;5066885;29;19986;-29
2022/03/29 06:50:39;;;;;;;;;;;17.10;89.40;;;;;;5050272;29;20930;-28
2022/03/29 06:53:10;;;;;;;;;;;17.10;89.10;;;;;;5066949;29;19923;-30
2022/03/29 06:55:41;;;;;;;;;;;17.10;89.30;;;;;;5066922;29;19923;-29
2022/03/29 06:58:12;;;;;;;;;;;17.20;89.90;;;;;;5066807;29;19924;-29
2022/03/29 07:00:43;;;;;;;;;;;16.90;82.50;;;;;;5066429;29;20013;-27
2022/03/29 07:03:14;;;;;;;;;;;16.40;83.00;;;;;;5066456;29;20662;-29
2022/03/29 07:05:48;;;;;;;;;;;16.00;84.20;;;;;;5086215;29;19927;-27
2022/03/29 07:08:22;;;;;;;;;;;15.70;84.80;;;;;;5088409;29;19930;-27
2022/03/29 07:13:46;;;;;;;;;;;15.40;85.80;;;;;;5074144;29;20360;-28
2022/03/29 07:16:17;;;;;;;;;;;15.30;86.10;;;;;;5088064;29;19927;-28
2022/03/29 07:18:49;;;;;;;;;;;15.20;86.20;;;;;;5088199;29;19923;-27
2022/03/29 07:21:22;;;;;;;;;;;15.10;86.60;;;;;;5087538;29;19954;-27
2022/03/29 07:23:53;;;;;;;;;;;15.00;86.80;;;;;;5087777;29;20388;-28
2022/03/29 07:26:25;;;;;;;;;;;15.00;87.10;;;;;;5087823;29;20403;-27
2022/03/29 07:28:56;;;;;;;;;;;14.90;87.00;;;;;;5087960;29;20014;-28
2022/03/29 07:31:34;;;;;;;;;;;14.90;86.90;;;;;;5086840;29;20285;-28
2022/03/29 07:34:37;;;;;;;;;;;;;;;;;;;;;
2022/03/29 07:37:14;;;;;;;;;;;14.80;87.10;;;;;;5073659;29;20317;-28
2022/03/29 07:39:46;;;;;;;;;;;14.70;87.10;;;;;;5087907;29;20010;-28
2022/03/29 07:42:17;;;;;;;;;;;14.70;87.10;;;;;;5086506;29;20419;-28
2022/03/29 07:44:50;;;;;;;;;;;14.70;87.60;;;;;;5087770;29;19939;-28
2022/03/29 07:47:21;;;;;;;;;;;14.60;87.60;;;;;;5087706;29;19923;-28
2022/03/29 07:49:52;;;;;;;;;;;14.70;87.70;;;;;;5087781;29;19929;-28
2022/03/29 07:52:23;;;;;;;;;;;14.70;87.60;;;;;;5086404;29;20296;-28
2022/03/29 07:54:54;;;;;;;;;;;14.80;87.50;;;;;;5087523;29;20001;-28
2022/03/29 07:57:25;;;;;;;;;;;14.80;87.20;;;;;;5087593;29;20017;-29
2022/03/29 07:59:56;;;;;;;;;;;14.90;87.10;;;;;;5087525;29;20014;-28
2022/03/29 08:02:28;;;;;;;;;;;14.90;87.40;;;;;;5087751;29;19930;-29
2022/03/29 08:04:59;;;;;;;;;;;14.80;87.10;;;;;;5070579;29;19983;-28
2022/03/29 08:07:30;;;;;;;;;;;14.80;86.40;;;;;;5087596;29;19923;-28
2022/03/29 08:10:01;;;;;;;;;;;14.80;86.60;;;;;;5087758;29;19923;-29
2022/03/29 08:12:32;;;;;;;;;;;14.80;86.50;;;;;;5086925;29;19930;-27
2022/03/29 08:15:06;;;;;;;;;;;14.80;86.60;;;;;;5087424;29;19923;-29
2022/03/29 08:17:38;;;;;;;;;;;14.70;87.00;;;;;;5070642;29;20285;-27
2022/03/29 08:20:09;;;;;;;;;;;14.70;86.90;;;;;;5086981;29;19930;-30
2022/03/29 08:22:44;;;;;;;;;;;14.70;86.60;;;;;;5087483;29;19923;-28
2022/03/29 08:25:15;;;;;;;;;;;14.90;86.30;;;;;;5087372;29;19958;-29
2022/03/29 08:27:47;;;;;;;;;;;15.20;85.30;;;;;;5070321;29;19923;-29
2022/03/29 08:30:18;;;;;;;;;;;15.40;84.70;;;;;;5070473;29;19958;-29
2022/03/29 08:32:49;;;;;;;;;;;15.60;84.20;;;;;;5087900;29;20342;-28
2022/03/29 08:35:20;;;;;;;;;;;15.80;83.30;;;;;;5091094;29;19965;-28
2022/03/29 08:37:51;;;;;;;;;;;16.00;83.00;;;;;;5091090;29;19930;-30
2022/03/29 08:40:25;;;;;;;;;;;16.10;83.10;;;;;;5090970;29;19923;-28
2022/03/29 08:42:58;;;;;;;;;;;16.20;82.10;;;;;;5090838;29;19923;-29
2022/03/29 08:45:30;;;;;;;;;;;16.30;81.70;;;;;;5091251;29;20346;-29
2022/03/29 08:48:02;;;;;;;;;;;16.50;81.40;;;;;;5090782;29;19938;-28
2022/03/29 08:50:36;;;;;;;;;;;16.50;81.10;;;;;;5090851;29;19938;-29
2022/03/29 08:53:11;;;;;;;;;;;16.60;80.90;;;;;;5090854;29;20369;-29
2022/03/29 08:55:44;;;;;;;;;;;16.70;80.60;;;;;;5090815;29;19923;-28
2022/03/29 08:58:17;;;;;;;;;;;16.80;80.30;;;;;;5074277;29;19978;-30
2022/03/29 09:00:49;;;;;;;;;;;16.80;81.20;;;;;;5090355;29;19927;-28
2022/03/29 09:03:21;;;;;;;;;;;16.80;80.80;;;;;;5090711;29;19923;-29
2022/03/29 09:06:07;;;;;;;;;;;16.80;87.60;;;;;;5089488;29;19985;-29
2022/03/29 09:08:41;;;;;;;;;;;16.80;83.80;;;;;;5073606;29;19931;-28
2022/03/29 09:11:13;;;;;;;;;;;16.80;87.70;;;;;;5073975;29;19930;-29
2022/03/29 09:13:44;;;;;;;;;;;16.70;88.10;;;;;;5090628;29;19930;-28
2022/03/29 09:16:28;;;;;;;;;;;16.70;87.40;;;;;;5090065;29;19923;-29
2022/03/29 09:19:00;;;;;;;;;;;16.70;81.30;;;;;;5073715;29;19923;-29
2022/03/29 09:21:38;;;;;;;;;;;16.70;79.90;;;;;;5090707;29;20269;-29
2022/03/29 09:24:14;;;;;;;;;;;16.70;81.30;;;;;;5090267;29;19926;-29
2022/03/29 09:26:46;;;;;;;;;;;16.70;80.90;;;;;;5090127;29;20014;-28
2022/03/29 09:29:26;;;;;;;;;;;16.70;81.70;;;;;;5090242;29;19938;-29
2022/03/29 09:32:02;;;;;;;;;;;16.80;83.70;;;;;;5090161;29;19954;-28
2022/03/29 09:34:33;;;;;;;;;;;16.70;81.50;;;;;;5090080;29;19930;-29
2022/03/29 09:37:04;;;;;;;;;;;16.70;83.00;;;;;;5089997;29;19930;-28
2022/03/29 09:39:39;;;;;;;;;;;16.70;83.60;;;;;;5073245;29;20273;-28
2022/03/29 09:42:11;;;;;;;;;;;16.80;81.90;;;;;;5089661;29;20009;-29
2022/03/29 09:44:46;;;;;;;;;;;16.80;86.00;;;;;;5089534;29;19924;-29
2022/03/29 09:47:20;;;;;;;;;;;16.80;81.90;;;;;;5088625;29;19930;-29
2022/03/29 09:49:53;;;;;;;;;;;16.80;84.00;;;;;;5090082;29;20378;-28
2022/03/29 09:52:28;;;;;;;;;;;16.80;83.60;;;;;;5089788;29;19923;-28
2022/03/29 09:55:15;;;;;;;;;;;16.80;80.50;;;;;;5089591;29;19925;-28
2022/03/29 09:57:47;;;;;;;;;;;16.80;82.00;;;;;;5073144;29;19923;-30
2022/03/29 10:00:32;;;;;;;;;;;16.80;79.70;;;;;;5089612;29;19930;-30
2022/03/29 10:03:06;;;;;;;;;;;16.80;81.40;;;;;;5089431;29;20009;-29
2022/03/29 10:05:38;;;;;;;;;;;16.80;84.10;;;;;;5089263;29;19927;-28
2022/03/29 10:11:22;;;;;;;;;;;16.80;88.00;;;;;;5037463;29;19923;-28
2022/03/29 10:13:57;;;;;;;;;;;16.80;86.80;;;;;;5048813;29;19924;-28
2022/03/29 10:16:27;;;;;;;;;;;16.80;84.50;;;;;;5048339;29;20398;-29
2022/03/29 10:18:59;;;;;;;;;;;16.70;83.20;;;;;;5048237;29;19928;-28
2022/03/29 10:21:30;;;;;;;;;;;16.70;81.00;;;;;;5047978;29;19924;-30
2022/03/29 10:24:01;;;;;;;;;;;16.70;87.80;;;;;;5033199;29;19923;-30
2022/03/29 10:26:33;;;;;;;;;;;16.80;90.00;;;;;;5047918;29;19930;-28
2022/03/29 10:29:06;;;;;;;;;;;16.80;90.20;;;;;;5047967;29;19930;-29
2022/03/29 10:31:59;;;;;;;;;;;16.80;92.30;;;;;;5032407;29;20080;-29
2022/03/29 10:34:40;;;;;;;;;;;16.90;92.20;;;;;;5032621;29;19923;-29
2022/03/29 10:37:18;;;;;;;;;;;16.90;92.80;;;;;;5048231;29;19929;-28
2022/03/29 10:39:50;;;;;;;;;;;16.90;86.80;;;;;;5047811;29;20274;-30
2022/03/29 10:42:38;;;;;;;;;;;16.80;84.70;;;;;;5047696;29;19967;-29
2022/03/29 10:45:13;;;;;;;;;;;16.90;85.70;;;;;;5047609;29;19930;-28
2022/03/29 10:48:02;;;;;;;;;;;16.90;81.70;;;;;;5047596;29;19979;-29
2022/03/29 10:50:46;;;;;;;;;;;16.90;82.70;;;;;;5047849;29;19924;-28
2022/03/29 10:53:21;;;;;;;;;;;17.00;86.20;;;;;;5047532;29;19960;-28
2022/03/29 10:56:13;;;;;;;;;;;17.00;83.90;;;;;;5046914;29;19935;-28
2022/03/29 10:59:03;;;;;;;;;;;17.00;84.80;;;;;;5047256;29;19931;-28
2022/03/29 11:01:37;;;;;;;;;;;17.00;87.70;;;;;;5047388;29;19923;-28
2022/03/29 11:04:11;;;;;;;;;;;17.00;84.50;;;;;;5047378;29;20139;-29
2022/03/29 11:07:18;;;;;;;;;;;16.90;83.70;;;;;;5048565;29;19955;-28
2022/03/29 11:09:49;;;;;;;;;;;16.90;85.50;;;;;;5009199;29;19947;-28
2022/03/29 11:12:36;;;;;;;;;;;16.90;83.00;;;;;;5008962;29;19966;-30
2022/03/29 11:15:27;;;;;;;;;;;16.80;89.70;;;;;;5008893;29;19950;-28
2022/03/29 11:17:58;;;;;;;;;;;16.90;90.30;;;;;;5008799;29;19928;-28
2022/03/29 11:20:30;;;;;;;;;;;16.90;83.90;;;;;;5008679;29;20025;-29
2022/03/29 11:23:02;;;;;;;;;;;16.80;77.50;;;;;;5008609;29;19973;-28
2022/03/29 11:25:45;;;;;;;;;;;16.80;79.00;;;;;;5008380;29;19928;-29
2022/03/29 11:28:16;;;;;;;;;;;16.80;81.20;;;;;;5008335;29;19924;-29
2022/03/29 11:30:51;;;;;;;;;;;16.80;78.40;;;;;;5008484;29;19951;-29
2022/03/29 11:33:34;;;;;;;;;;;16.80;83.00;;;;;;5009199;29;20003;-30
2022/03/29 11:36:06;;;;;;;;;;;16.90;77.60;;;;;;5008732;29;19953;-29
2022/03/29 11:38:38;;;;;;;;;;;16.80;79.50;;;;;;5008363;29;19956;-28
2022/03/29 11:41:19;;;;;;;;;;;16.80;77.10;;;;;;5008427;29;19928;-30
2022/03/29 11:43:57;;;;;;;;;;;16.80;83.70;;;;;;5041082;29;19930;-28
2022/03/29 11:46:49;;;;;;;;;;;16.80;78.50;;;;;;5067939;29;19959;-29
2022/03/29 11:49:21;;;;;;;;;;;16.80;74.10;;;;;;5068529;29;20363;-29
2022/03/29 11:52:05;;;;;;;;;;;16.80;73.00;;;;;;5036263;29;20300;-29
2022/03/29 11:54:44;;;;;;;;;;;16.80;81.70;;;;;;5027382;29;20033;-29
2022/03/29 11:57:14;;;;;;;;;;;16.80;78.20;;;;;;5027512;29;20295;-29
2022/03/29 12:02:27;;;;;;;;;;;16.80;75.70;;;;;;5310021;27;19912;-32
2022/03/29 12:04:58;;;;;;;;;;;16.80;74.70;;;;;;5309468;28;19978;-39
2022/03/29 12:07:38;;;;;;;;;;;16.80;74.10;;;;;;5308951;28;19967;-35
2022/03/29 12:10:11;;;;;;;;;;;16.80;76.90;;;;;;5309204;27;19935;-40
2022/03/29 12:12:49;;;;;;;;;;;16.90;76.90;;;;;;5308362;28;19930;-35
2022/03/29 12:15:20;;;;;;;;;;;16.90;76.70;;;;;;5309383;27;19976;-36
2022/03/29 12:18:40;;;;;;;;;;;16.90;90.40;;;;;;5309397;27;20334;-31
2022/03/29 12:20:47;;;;;;;;;;;16.90;80.50;;;;;;5309228;27;20334;-35
2022/03/29 12:23:30;;;;;;;;;;;16.90;83.90;;;;;;5308944;27;19924;-35
2022/03/29 12:26:08;;;;;;;;;;;16.80;79.30;;;;;;5309222;27;19924;-40
2022/03/29 12:28:40;;;;;;;;;;;16.80;79.50;;;;;;5309281;27;19924;-38
2022/03/29 12:31:12;;;;;;;;;;;16.80;75.90;;;;;;5309130;27;19923;-39
2022/03/29 12:33:43;;;;;;;;;;;16.80;78.70;;;;;;5309172;27;19927;-40
2022/03/29 12:36:14;;;;;;;;;;;16.90;87.00;;;;;;5308964;27;20357;-36
2022/03/29 12:38:55;;;;;;;;;;;16.80;80.10;;;;;;5307561;28;19931;-38
2022/03/29 12:41:37;;;;;;;;;;;16.80;79.30;;;;;;5308829;27;19930;-37
2022/03/29 12:44:09;;;;;;;;;;;16.90;81.70;;;;;;5307791;28;20391;-33
2022/03/29 12:46:42;;;;;;;;;;;16.80;79.80;;;;;;5308560;27;19973;-39
2022/03/29 12:49:14;;;;;;;;;;;16.80;81.60;;;;;;5307375;28;19924;-37
2022/03/29 12:51:51;;;;;;;;;;;16.80;79.50;;;;;;5308641;27;19924;-35
2022/03/29 12:54:31;;;;;;;;;;;16.80;76.00;;;;;;5308844;27;20269;-34
2022/03/29 12:57:02;;;;;;;;;;;16.90;81.70;;;;;;5308597;27;19946;-37
2022/03/29 12:59:37;;;;;;;;;;;17.00;81.10;;;;;;5308618;27;19928;-36
2022/03/29 13:02:14;;;;;;;;;;;17.10;83.80;;;;;;5308299;27;19931;-36
2022/03/29 13:04:51;;;;;;;;;;;17.10;84.10;;;;;;5308689;27;20277;-38
2022/03/29 13:07:50;;;;;;;;;;;17.10;87.20;;;;;;5308139;27;19973;-32
2022/03/29 13:10:24;;;;;;;;;;;17.10;90.90;;;;;;5309176;27;19962;-33
2022/03/29 13:13:00;;;;;;;;;;;17.10;91.40;;;;;;5299685;27;19958;-38
2022/03/29 13:15:41;;;;;;;;;;;17.00;86.90;;;;;;5293877;28;19924;-35
2022/03/29 13:18:18;;;;;;;;;;;17.10;86.20;;;;;;5294505;28;19923;-39
2022/03/29 13:20:49;;;;;;;;;;;17.10;88.00;;;;;;5293983;28;19924;-36
2022/03/29 13:23:34;;;;;;;;;;;17.10;90.70;;;;;;5293711;28;19923;-36
2022/03/29 13:26:06;;;;;;;;;;;17.10;88.50;;;;;;5293779;28;19924;-37
2022/03/29 13:28:37;;;;;;;;;;;17.10;91.10;;;;;;5292370;28;19924;-36
2022/03/29 13:31:10;;;;;;;;;;;17.10;91.50;;;;;;5294065;28;19924;-35
2022/03/29 13:33:42;;;;;;;;;;;17.10;90.60;;;;;;5293428;28;19927;-36
2022/03/29 13:36:14;;;;;;;;;;;17.10;92.90;;;;;;5293178;28;19951;-32
2022/03/29 13:38:46;;;;;;;;;;;17.10;92.30;;;;;;5293406;28;20330;-34
2022/03/29 13:41:18;;;;;;;;;;;17.10;87.70;;;;;;5292124;28;19924;-30
2022/03/29 13:43:49;;;;;;;;;;;17.10;91.80;;;;;;5289156;28;19924;-34
2022/03/29 13:46:20;;;;;;;;;;;17.10;90.00;;;;;;5272316;28;19924;-32
2022/03/29 13:48:51;;;;;;;;;;;17.10;90.70;;;;;;5272350;28;19924;-36
2022/03/29 13:51:22;;;;;;;;;;;17.10;87.60;;;;;;5271651;28;19931;-33
2022/03/29 13:53:53;;;;;;;;;;;17.10;87.70;;;;;;5280512;28;19931;-33
2022/03/29 13:56:31;;;;;;;;;;;17.10;90.20;;;;;;5293057;28;19924;-35
2022/03/29 13:59:03;;;;;;;;;;;17.10;91.80;;;;;;5277406;28;19924;-34
2022/03/29 14:01:34;;;;;;;;;;;17.10;83.10;;;;;;5286503;28;19927;-36
2022/03/29 14:04:06;;;;;;;;;;;17.10;85.70;;;;;;5292877;28;19930;-39
2022/03/29 14:06:36;;;;;;;;;;;17.10;80.10;;;;;;5293060;28;19929;-37
2022/03/29 14:09:07;;;;;;;;;;;17.20;84.60;;;;;;5293066;28;20018;-36
2022/03/29 14:11:38;;;;;;;;;;;17.10;79.10;;;;;;5292784;28;20019;-35
2022/03/29 14:14:10;;;;;;;;;;;17.10;85.40;;;;;;5291746;28;19932;-32
2022/03/29 14:16:41;;;;;;;;;;;17.20;88.00;;;;;;5283680;28;19950;-35
2022/03/29 14:19:12;;;;;;;;;;;17.20;88.20;;;;;;5273348;28;19924;-34
2022/03/29 14:21:43;;;;;;;;;;;17.20;83.40;;;;;;5281822;28;19973;-37
2022/03/29 14:24:14;;;;;;;;;;;17.20;77.50;;;;;;5291630;28;20414;-33
2022/03/29 14:26:45;;;;;;;;;;;17.20;85.10;;;;;;5292108;28;19927;-35
2022/03/29 14:29:16;;;;;;;;;;;17.30;90.20;;;;;;5292837;28;20300;-34
2022/03/29 14:31:47;;;;;;;;;;;17.20;79.10;;;;;;5292593;28;19958;-32
2022/03/29 14:34:18;;;;;;;;;;;17.20;94.40;;;;;;5292579;28;19931;-35
2022/03/29 14:36:48;;;;;;;;;;;17.20;84.40;;;;;;5292359;28;19924;-37
2022/03/29 14:39:20;;;;;;;;;;;17.20;88.00;;;;;;5292387;28;19923;-35
2022/03/29 14:41:51;;;;;;;;;;;17.20;79.20;;;;;;5291981;27;19966;-33
2022/03/29 14:44:22;;;;;;;;;;;17.20;79.90;;;;;;5292206;27;19924;-34
2022/03/29 14:46:57;;;;;;;;;;;17.20;80.90;;;;;;5289965;28;19953;-34
2022/03/29 14:49:28;;;;;;;;;;;17.20;85.10;;;;;;5276350;28;19931;-39
2022/03/29 14:51:59;;;;;;;;;;;17.30;85.60;;;;;;5284853;28;19924;-35
2022/03/29 14:54:31;;;;;;;;;;;17.30;88.60;;;;;;5290041;28;20323;-33
2022/03/29 14:57:02;;;;;;;;;;;17.30;85.00;;;;;;5289861;28;20338;-37
2022/03/29 14:59:33;;;;;;;;;;;17.40;87.80;;;;;;5289698;28;19927;-34
2022/03/29 15:02:05;;;;;;;;;;;17.30;85.70;;;;;;5289783;28;19931;-31
2022/03/29 15:04:37;;;;;;;;;;;17.30;84.80;;;;;;5268527;28;19924;-36